METAR Data
IDs: Format: Raw Decoded Include TAF

Data at: 1302 UTC 26 Feb 2021

ETHB 261220Z 33010KT 9999 SCT032 10/02 Q1032 BLU+